Data for 06/12/2009

Time Sea-Level Adjusted Pressure Absolute Pressure Temperature Relative Humidity Dew Point   
(mb) (inHg) (mb) (inHg) (C) (F) (%) (C) (F)
00:05 1016 30 845 24.95 11.7 53.1 53 2.6 36.7
00:10 1016 30 845 24.95 11.7 53 53 2.5 36.6
00:15 1016 30 845 24.95 11.7 53 53 2.6 36.6
00:20 1016 30 845 24.95 11.7 53 53 2.6 36.7
00:25 1016 30 845 24.95 11.7 53 53 2.6 36.6
00:30 1016 30 845 24.95 11.6 52.9 53 2.5 36.5
00:35 1016 30 845 24.95 11.6 52.9 53 2.5 36.5
00:40 1016 30 845 24.95 11.5 52.8 54 2.6 36.6
00:45 1016 30 845 24.95 11.6 52.8 53 2.5 36.5
00:50 1016 30 845 24.95 11.6 52.9 54 2.6 36.7
00:55 1016 30 845 24.95 11.5 52.7 54 2.6 36.7
01:00 1016 30 845 24.95 11.4 52.6 54 2.6 36.7
01:05 1016 30 845 24.95 11.4 52.5 55 2.6 36.8
01:10 1016 30 846 24.98 11.4 52.5 55 2.8 37
01:15 1016 30 846 24.98 11 51.8 57 2.9 37.2
01:20 1016 30 846 24.98 10.5 50.8 59 2.9 37.2
01:25 1017 30.03 846 24.98 10 50.1 61 2.9 37.2
01:30 1017 30.03 846 24.98 9.5 49.1 62 2.5 36.5
01:35 1017 30.03 846 24.98 9.3 48.8 62 2.5 36.5
01:40 1017 30.03 846 24.98 9.2 48.5 63 2.5 36.5
01:45 1017 30.03 846 24.98 9 48.2 64 2.5 36.6
01:50 1017 30.03 846 24.98 8.8 47.8 64 2.5 36.4
01:55 1017 30.03 846 24.98 8.6 47.6 65 2.5 36.6
02:00 1017 30.03 846 24.98 8.5 47.3 67 2.7 36.8
02:05 1017 30.03 846 24.98 8.2 46.8 68 2.7 36.8
02:10 1017 30.03 846 24.98 8.1 46.6 68 2.7 36.8
02:15 1017 30.03 846 24.98 8.2 46.8 69 2.9 37.2
02:20 1017 30.03 846 24.98 8.2 46.8 69 2.8 37.1
02:25 1017 30.03 846 24.98 8 46.4 69 2.8 37
02:30 1017 30.03 846 24.98 8 46.4 69 2.7 36.9
02:35 1017 30.03 846 24.98 8 46.4 69 2.7 36.8
02:40 1017 30.03 846 24.98 8.1 46.5 68 2.5 36.5
02:45 1017 30.03 846 24.98 8.3 46.9 67 2.5 36.5
02:50 1017 30.03 846 24.98 8.3 46.9 67 2.5 36.5
02:55 1017 30.03 846 24.98 8.2 46.7 67 2.5 36.4
03:00 1017 30.03 846 24.98 7.9 46.2 67 2.2 36
03:05 1017 30.03 846 24.98 7.8 46 68 2.3 36.2
03:10 1017 30.03 846 24.98 7.6 45.8 69 2.3 36.1
03:15 1017 30.03 846 24.98 7.3 45.2 70 2.2 35.9
03:20 1017 30.03 846 24.98 7.2 44.9 69 1.9 35.5
03:25 1017 30.03 846 24.98 7.1 44.7 70 2 35.5
03:30 1017 30.03 846 24.98 6.9 44.4 70 1.8 35.2
03:35 1017 30.03 846 24.98 6.7 44.1 71 1.9 35.5
03:40 1017 30.03 846 24.98 6.7 44.1 68 1.2 34.2
03:45 1017 30.03 846 24.98 7 44.5 66 1.1 33.9
03:50 1017 30.03 846 24.98 7.3 45.2 64 1.1 34
03:55 1017 30.03 846 24.98 7.8 46 63 1.1 34
04:00 1017 30.03 846 24.98 7.7 45.8 64 1.3 34.3
04:05 1017 30.03 846 24.98 8 46.4 61 1.1 33.9
04:10 1017 30.03 846 24.98 8 46.4 64 1.6 34.8
04:15 1017 30.03 846 24.98 7.4 45.4 67 1.7 35
04:20 1017 30.03 846 24.98 8 46.3 64 1.6 34.9
04:25 1017 30.03 846 24.98 8.4 47.1 63 1.9 35.3
04:30 1017 30.03 846 24.98 8.2 46.7 64 1.9 35.4
04:35 1017 30.03 846 24.98 7.7 45.8 67 1.9 35.4
04:40 1017 30.03 846 24.98 7.4 45.4 68 1.9 35.4
04:45 1017 30.03 846 24.98 6.9 44.4 70 1.9 35.4
04:50 1017 30.03 846 24.98 6.6 43.9 71 1.7 35.1
04:55 1017 30.03 846 24.98 6.5 43.8 71 1.7 35.1
05:00 1017 30.03 846 24.98 6.3 43.3 72 1.5 34.7
05:05 1017 30.03 846 24.98 6.2 43.1 71 1.4 34.5
05:10 1017 30.03 846 24.98 6 42.8 73 1.5 34.8
05:15 1017 30.03 846 24.98 5.8 42.5 73 1.5 34.6
05:20 1017 30.03 846 24.98 6.2 43.1 71 1.3 34.4
05:25 1017 30.03 846 24.98 6.1 42.9 73 1.6 34.9
05:30 1017 30.03 846 24.98 6 42.7 74 1.7 35.1
05:35 1017 30.03 846 24.98 6 42.8 74 1.8 35.2
05:40 1017 30.03 846 24.98 5.9 42.7 74 1.6 34.9
05:45 1017 30.03 846 24.98 5.6 42.1 75 1.5 34.6
05:50 1017 30.03 846 24.98 5.7 42.3 75 1.5 34.8
05:55 1017 30.03 846 24.98 5.6 42 75 1.5 34.7
06:00 1017 30.03 846 24.98 5.7 42.3 74 1.5 34.7
06:05 1017 30.03 846 24.98 5.8 42.5 74 1.5 34.7
06:10 1017 30.03 846 24.98 5.8 42.4 74 1.4 34.6
06:15 1017 30.03 846 24.98 5.9 42.6 73 1.5 34.7
06:20 1017 30.03 847 25.01 6.1 43 72 1.5 34.7
06:25 1017 30.03 846 24.98 6.1 43 72 1.4 34.5
06:30 1017 30.03 847 25.01 6.2 43.1 72 1.5 34.6
06:35 1017 30.03 847 25.01 6.3 43.3 72 1.5 34.8
06:40 1017 30.03 847 25.01 6.3 43.3 71 1.3 34.4
06:45 1017 30.03 847 25.01 6.6 43.9 69 1.2 34.2
06:50 1017 30.03 847 25.01 7 44.6 68 1.5 34.6
06:55 1017 30.03 847 25.01 7.3 45.1 67 1.5 34.7
07:00 1017 30.03 847 25.01 7.6 45.6 66 1.6 34.9
07:05 1017 30.03 847 25.01 7.9 46.1 66 1.9 35.3
07:10 1017 30.03 847 25.01 8.1 46.5 65 2 35.6
07:15 1017 30.03 847 25.01 8.2 46.8 66 2.2 35.9
07:20 1017 30.03 847 25.01 8.4 47.2 66 2.4 36.3
07:25 1017 30.03 847 25.01 8.5 47.3 66 2.5 36.5
07:30 1017 30.03 847 25.01 8.9 48 64 2.4 36.3
07:35 1017 30.03 847 25.01 9.8 49.7 60 2.4 36.3
07:40 1017 30.03 847 25.01 10.3 50.5 60 2.8 37.1
07:45 1018 30.06 847 25.01 10.3 50.5 59 2.8 37
07:50 1017 30.03 847 25.01 10.8 51.5 57 2.7 36.9
07:55 1018 30.06 847 25.01 11.3 52.3 55 2.5 36.5
08:00 1018 30.06 847 25.01 11.9 53.5 54 2.9 37.2
08:05 1018 30.06 847 25.01 12 53.6 51 2.2 36
08:10 1018 30.06 847 25.01 12.3 54.2 50 2.3 36.2
08:15 1018 30.06 847 25.01 13 55.4 49 2.7 36.8
08:20 1018 30.06 847 25.01 13.2 55.7 49 2.6 36.7
08:25 1018 30.06 847 25.01 13.7 56.7 47 2.8 37.1
08:30 1018 30.06 847 25.01 14 57.2 46 2.7 36.9
08:35 1018 30.06 847 25.01 14 57.1 47 3 37.4
08:40 1018 30.06 847 25.01 14.2 57.6 45 2.7 36.8
08:45 1018 30.06 847 25.01 14.9 58.7 44 2.7 36.9
08:50 1018 30.06 847 25.01 15.1 59.1 44 2.9 37.3
08:55 1018 30.06 847 25.01 14.2 57.5 42 1.6 35
09:00 1018 30.06 847 25.01 13.9 57 43 1.6 34.8
09:05 1018 30.06 847 25.01 14.2 57.6 43 1.8 35.3
09:10 1018 30.06 847 25.01 14.6 58.3 42 2.1 35.8
09:15 1018 30.06 847 25.01 15 58.9 41 1.9 35.5
09:20 1018 30.06 847 25.01 15.5 59.9 40 2 35.7
09:25 1018 30.06 847 25.01 16 60.8 39 2.2 35.9
09:30 1018 30.06 847 25.01 16.1 61 40 2.7 36.9
09:35 1018 30.06 847 25.01 16 60.8 40 2.6 36.7
09:40 1018 30.06 847 25.01 16.3 61.3 40 2.7 36.8
09:45 1018 30.06 847 25.01 16.4 61.6 39 2.5 36.5
09:50 1018 30.06 847 25.01 16.3 61.3 36 1.4 34.5
09:55 1018 30.06 847 25.01 15.9 60.6 39 2 35.6
10:00 1018 30.06 847 25.01 16.1 61 38 1.9 35.4
10:05 1018 30.06 847 25.01 16.9 62.4 35 1.3 34.4
10:10 1018 30.06 847 25.01 17.3 63.1 33 0.8 33.4
10:15 1018 30.06 847 25.01 17.5 63.5 33 1.1 34
10:20 1018 30.06 847 25.01 17 62.5 33 0.6 33
10:25 1018 30.06 847 25.01 16.5 61.8 37 1.9 35.4
10:30 1018 30.06 847 25.01 17.5 63.4 35 2 35.6
10:35 1018 30.06 847 25.01 17.9 64.2 34 2 35.5
10:40 1018 30.06 847 25.01 18 64.3 35 2.3 36.1
10:45 1018 30.06 847 25.01 18 64.4 35 2.6 36.6
10:50 1018 30.06 847 25.01 18.2 64.7 33 1.8 35.3
10:55 1018 30.06 847 25.01 18.7 65.7 32 1.9 35.4
11:00 1018 30.06 847 25.01 19.1 66.4 33 2.6 36.7
11:05 1018 30.06 847 25.01 18.9 66.1 31 1.6 34.9
11:10 1018 30.06 847 25.01 18.7 65.6 32 1.7 35.1
11:15 1018 30.06 847 25.01 18.9 65.9 30 1.2 34.2
11:20 1018 30.06 847 25.01 18.7 65.7 27 -0.4 31.3
11:25 1018 30.06 847 25.01 18.3 64.9 30 0.3 32.6
11:30 1018 30.06 847 25.01 18.5 65.2 26 -1.4 29.4
11:35 1018 30.06 847 25.01 18.9 66.1 25 -1.2 29.9
11:40 1018 30.06 847 25.01 19.2 66.5 27 -0.1 31.8
11:45 1018 30.06 847 25.01 19.7 67.5 26 -0 31.9
11:50 1018 30.06 847 25.01 20.1 68.2 24 -0.8 30.5
11:55 1018 30.06 847 25.01 20.1 68.1 27 0.6 33
12:00 1018 30.06 847 25.01 19.8 67.7 24 -1.2 29.8
12:05 1018 30.06 847 25.01 19.9 67.9 24 -1.2 29.9
12:10 1018 30.06 847 25.01 19.1 66.4 26 -0.8 30.5
12:15 1018 30.06 847 25.01 19.5 67.1 20 -3.8 25.1
12:20 1018 30.06 847 25.01 19.7 67.4 23 -1.9 28.6
12:25 1018 30.06 847 25.01 19.5 67.2 22 -2.9 26.8
12:30 1018 30.06 847 25.01 20.1 68.2 21 -2.8 27
12:35 1017 30.03 847 25.01 19.7 67.5 24 -1.1 29.9
12:40 1017 30.03 847 25.01 19.6 67.2 23 -2.1 28.2
12:45 1017 30.03 847 25.01 20.1 68.2 23 -1.8 28.8
12:50 1017 30.03 847 25.01 19.7 67.4 23 -1.7 29
12:55 1017 30.03 847 25.01 20 67.9 22 -2 28.4
13:00 1017 30.03 847 25.01 20.6 69.1 21 -2.5 27.5
13:05 1017 30.03 847 25.01 20.6 69 24 -0.7 30.8
13:10 1017 30.03 846 24.98 20.7 69.2 22 -1.4 29.5
13:15 1017 30.03 846 24.98 21 69.9 20 -2.8 26.9
13:20 1017 30.03 846 24.98 19.6 67.3 21 -2.9 26.9
13:25 1017 30.03 846 24.98 20.3 68.6 19 -3.8 25.1
13:30 1017 30.03 846 24.98 20.2 68.4 19 -3.9 25
13:35 1017 30.03 846 24.98 20.6 69.1 22 -1.7 28.9
13:40 1017 30.03 846 24.98 20.7 69.3 23 -0.7 30.7
13:45 1017 30.03 846 24.98 20.6 69.2 21 -2.3 27.9
13:50 1017 30.03 846 24.98 20.8 69.4 21 -2.1 28.2
13:55 1017 30.03 846 24.98 20.9 69.6 21 -2.1 28.2
14:00 1017 30.03 846 24.98 21 69.8 22 -1.7 29
14:05 1017 30.03 846 24.98 21 69.8 22 -1.4 29.5
14:10 1017 30.03 846 24.98 22.4 72.2 20 -1.2 29.9
14:15 1017 30.03 846 24.98 21.9 71.4 22 -0.5 31.1
14:20 1017 30.03 846 24.98 21.9 71.4 19 -2.7 27.2
14:25 1017 30.03 846 24.98 21.8 71.3 21 -1.4 29.5
14:30 1017 30.03 846 24.98 22.1 71.8 19 -2.3 27.8
14:35 1017 30.03 846 24.98 21.9 71.4 20 -2.1 28.1
14:40 1017 30.03 846 24.98 21.8 71.2 19 -2.3 27.8
14:45 1017 30.03 846 24.98 22.7 72.8 20 -1.5 29.4
14:50 1017 30.03 846 24.98 22.2 72 19 -2.3 27.9
14:55 1017 30.03 846 24.98 22.1 71.8 15 -5.8 21.6
15:00 1017 30.03 846 24.98 21.4 70.6 14 -7.2 19
15:05 1017 30.03 846 24.98 21.4 70.5 15 -6 21.1
15:10 1017 30.03 846 24.98 22.7 72.8 14 -6 21.3
15:15 1016 30 846 24.98 22.8 73 17 -3.4 25.9
15:20 1016 30 846 24.98 22.1 71.7 15 -6 21.2
15:25 1016 30 846 24.98 22.3 72.2 13 -7.1 19.1
15:30 1016 30 846 24.98 21.5 70.7 13 -8 17.6
15:35 1016 30 846 24.98 21.7 71 13 -7.5 18.5
15:40 1016 30 846 24.98 22.3 72.2 14 -6 21.1
15:45 1016 30 846 24.98 22.5 72.5 13 -7 19.5
15:50 1016 30 846 24.98 22.6 72.7 14 -6.1 21
15:55 1016 30 846 24.98 22.3 72.2 14 -6 21.1
16:00 1016 30 846 24.98 22.8 73 14 -5.8 21.6
16:05 1016 30 846 24.98 23.2 73.7 13 -6.5 20.3
16:10 1016 30 846 24.98 23.3 73.9 12 -7 19.3
16:15 1016 30 846 24.98 23.3 74 12 -7.8 18
16:20 1016 30 846 24.98 23.2 73.7 14 -5.9 21.4
16:25 1016 30 846 24.98 22.2 72 13 -7.6 18.3
16:30 1016 30 845 24.95 21.4 70.5 15 -6.4 20.5
16:35 1016 30 845 24.95 20.6 69 14 -7.9 17.7
16:40 1016 30 845 24.95 21.7 71 15 -6.3 20.6
16:45 1016 30 845 24.95 22.2 71.9 14 -6 21.2
16:50 1016 30 845 24.95 22 71.5 14 -6.7 19.9
16:55 1016 30 845 24.95 22.2 72 14 -6.7 20
17:00 1016 30 845 24.95 22.2 71.9 14 -6.1 21
17:05 1016 30 845 24.95 22.2 71.9 14 -6.2 20.9
17:10 1016 30 845 24.95 22.3 72.1 14 -6.2 20.9
17:15 1016 30 845 24.95 21.8 71.2 15 -6 21.2
17:20 1016 30 845 24.95 21.2 70.1 15 -6.5 20.3
17:25 1016 30 845 24.95 21.2 70.2 15 -6.6 20.1
17:30 1016 30 845 24.95 21.1 70 16 -5.9 21.4
17:35 1016 30 845 24.95 21.5 70.8 15 -6.4 20.5
17:40 1016 30 845 24.95 21.4 70.5 15 -5.9 21.3
17:45 1016 30 845 24.95 21.3 70.4 16 -5.3 22.5
17:50 1016 30 845 24.95 21.7 71 15 -6 21.2
17:55 1016 30 845 24.95 21.1 70 16 -5.6 22
18:00 1016 30 845 24.95 20.7 69.3 19 -3.5 25.8
18:05 1016 30 845 24.95 20.5 68.9 18 -4.5 23.9
18:10 1016 30 845 24.95 20.4 68.8 18 -4.2 24.5
18:15 1016 30 845 24.95 20.7 69.2 18 -4.6 23.8
18:20 1016 30 845 24.95 21 69.7 17 -4.7 23.5
18:25 1016 30 845 24.95 20.9 69.6 17 -4.6 23.7
18:30 1016 30 845 24.95 20.8 69.5 17 -5.2 22.6
18:35 1016 30 845 24.95 20.8 69.4 18 -4.4 24.1
18:40 1016 30 845 24.95 20.6 69.1 25 0 32.1
18:45 1016 30 845 24.95 20.3 68.6 26 0.3 32.6
18:50 1016 30 845 24.95 19.7 67.5 26 0.1 32.1
18:55 1016 30 845 24.95 19.8 67.6 25 -0.7 30.7
19:00 1016 30 845 24.95 20.3 68.5 24 -0.6 31
19:05 1016 30 845 24.95 19.9 67.8 27 0.7 33.2
19:10 1016 30 845 24.95 19.8 67.6 27 0.4 32.7
19:15 1016 30 845 24.95 19.8 67.6 26 -0.3 31.4
19:20 1016 30 845 24.95 19.9 67.8 26 0.2 32.4
19:25 1016 30 845 24.95 20.2 68.3 24 -0.9 30.4
19:30 1016 30 845 24.95 20.1 68.2 24 -1 30.1
19:35 1016 30 845 24.95 19.5 67.1 26 -0.1 31.7
19:40 1016 30 845 24.95 19.5 67.1 28 0.8 33.4
19:45 1016 30 846 24.98 19.5 67 29 1 33.9
19:50 1016 30 846 24.98 19.4 66.9 30 1.7 35
19:55 1016 30 846 24.98 18.8 65.8 32 1.8 35.2
20:00 1016 30 846 24.98 18.6 65.5 32 1.6 34.9
20:05 1016 30 846 24.98 18.5 65.3 32 1.6 34.8
20:10 1016 30 846 24.98 18.4 65.1 33 1.8 35.3
20:15 1016 30 846 24.98 18.4 65.1 32 1.7 35
20:20 1016 30 846 24.98 18.4 65 32 1.5 34.6
20:25 1016 30 846 24.98 18.2 64.8 33 1.8 35.3
20:30 1016 30 846 24.98 18.1 64.6 33 1.6 35
20:35 1016 30 846 24.98 18 64.3 33 1.5 34.7
20:40 1016 30 846 24.98 17.9 64.2 33 1.6 34.9
20:45 1017 30.03 846 24.98 17.7 63.9 37 3 37.4
20:50 1017 30.03 846 24.98 17.2 63 38 3 37.4
20:55 1017 30.03 846 24.98 16.9 62.3 37 2 35.7
21:00 1017 30.03 846 24.98 17 62.5 34 1.1 33.9
21:05 1017 30.03 846 24.98 16.7 62.1 37 1.9 35.4
21:10 1017 30.03 846 24.98 16.3 61.3 39 2.4 36.4
21:15 1017 30.03 846 24.98 16.1 61 40 2.5 36.5
21:20 1017 30.03 846 24.98 16 60.7 42 3.2 37.7
21:25 1017 30.03 846 24.98 15.7 60.2 44 3.5 38.3
21:30 1017 30.03 846 24.98 15.5 59.8 45 3.7 38.7
21:35 1017 30.03 846 24.98 15 59 44 2.9 37.3
21:40 1017 30.03 846 24.98 14.5 58.2 50 4.2 39.6
21:45 1017 30.03 846 24.98 14.2 57.6 46 3 37.4
21:50 1017 30.03 846 24.98 14.1 57.3 46 2.7 36.9
21:55 1017 30.03 846 24.98 14 57.2 44 2 35.6
22:00 1017 30.03 846 24.98 14 57.2 47 2.9 37.2
22:05 1017 30.03 846 24.98 13.8 56.9 44 1.7 35.1
22:10 1017 30.03 846 24.98 13.7 56.7 45 1.9 35.5
22:15 1017 30.03 846 24.98 13.4 56.2 45 1.7 35.1
22:20 1017 30.03 846 24.98 13.3 55.9 44 1.3 34.4
22:25 1017 30.03 846 24.98 13.3 56 43 1.1 33.9
22:30 1017 30.03 846 24.98 13.4 56.1 45 1.7 35
22:35 1017 30.03 846 24.98 13.2 55.8 42 0.7 33.3
22:40 1017 30.03 846 24.98 13.1 55.6 44 1.3 34.4
22:45 1017 30.03 846 24.98 12.8 55.1 49 2.4 36.3
22:50 1017 30.03 846 24.98 12.4 54.3 45 0.8 33.5
22:55 1017 30.03 846 24.98 13.2 55.7 42 0.5 32.9
23:00 1017 30.03 846 24.98 13.2 55.8 44 1.3 34.4
23:05 1017 30.03 846 24.98 12.9 55.2 45 1.3 34.3
23:10 1017 30.03 846 24.98 12.5 54.6 48 1.9 35.4
23:15 1017 30.03 846 24.98 12 53.5 49 1.7 35.1
23:20 1017 30.03 846 24.98 11.8 53.3 49 1.6 34.9
23:25 1017 30.03 846 24.98 11.8 53.2 49 1.6 34.9
23:30 1017 30.03 846 24.98 12.1 53.8 47 1.2 34.1
23:35 1017 30.03 846 24.98 12.2 54 47 1.4 34.5
23:40 1017 30.03 846 24.98 12 53.6 47 1.2 34.2
23:45 1017 30.03 846 24.98 12.1 53.8 46 1 33.8
23:50 1017 30.03 846 24.98 12.1 53.7 48 1.4 34.5
23:55 1017 30.03 846 24.98 11.8 53.2 48 1.3 34.3
24:00 1017 30.03 846 24.98 11.7 53.1 49 1.5 34.7